South Manitou, Michigan
Current Conditions -  °F | °C
As of 10:53 AM on Friday 28 Nov 2014 (Local Time) from KTVC Reporting Station
Overcast Overcast  
Wind Chill: 16°   Ceiling: 10000
Heat Index: 22°   Visibility: 10mi
Dew Point: 14°   Wind: 5mph
Humidity: 72%   Direction: NA
Pressure: 30.21"   Gusts: NA
Location:  45.1128°N, 86.0164°W
Report Text: KTVC 281553Z VRB04KT 10SM FEW025 BKN100 OVC120 M06/M10 A3021 RMK AO2 SLP240 T10561100
Loading
Personal Weather Stations






























Interactive Weather Map New forecast layout! Learn more

10-Day Weather Forecast

Advertisements
Track Severe Weather on mobile